Flugplatz Pasewalk

Für EDCV sind keine METAR/TAF Berichte vorhanden.
Es werden die Flugwettermeldungen vom Flugplatz Heringsdorf in 43 km Entfernung angezeigt.

Prognose für EDAH

vom 21.07. um 00:00 UTC

Am 21.07. zwischen 00:00 UTC und 00:00 UTC

Wind 12 kt aus 280°

Sichtweite 10 km oder mehr

keine signifikanten Wettererscheinungen

keine Wolken


Am 21.07. zwischen 00:00 und 00:00 UTC übergehend zu

Wind 7 kt aus 280°

Sichtweite 10 km oder mehr

keine signifikanten Wettererscheinungen

keine Wolken

TAF EDAH 211400Z 2115/2124 28012KT CAVOK BECMG 2116/2118 28007KT
Impressum